Time;durP1;ratioP1;P1;durP2;ratioP2;P2;SDS_P1;SDS_P2;PMS_P1;PMS_P2;Temp;Humidity;BMP_temperature;BMP_pressure;BME280_temperature;BME280_humidity;BME280_pressure;Samples;Min_cycle;Max_cycle;Signal;HPM_P1;HPM_P2
2022/06/17 00:01:57;;;;;;;6.30;5.70;;;15.60;90.10;;;;;;5142231;27;20431;-77
2022/06/17 00:04:25;;;;;;;6.33;5.73;;;15.50;90.00;;;;;;5161285;27;20469;-78
2022/06/17 00:06:57;;;;;;;5.77;5.27;;;15.50;90.10;;;;;;5142078;27;20496;-78
2022/06/17 00:09:28;;;;;;;5.90;5.40;;;15.50;90.10;;;;;;5161131;27;20495;-78
2022/06/17 00:11:56;;;;;;;6.97;6.27;;;15.50;90.20;;;;;;5160363;27;20961;-79
2022/06/17 00:14:28;;;;;;;7.60;5.83;;;15.40;90.10;;;;;;5160549;27;20927;-77
2022/06/17 00:16:56;;;;;;;6.20;5.60;;;15.40;90.20;;;;;;5142264;27;20528;-79
2022/06/17 00:19:25;;;;;;;6.40;5.80;;;15.30;90.20;;;;;;5142216;27;20464;-77
2022/06/17 00:21:55;;;;;;;6.63;6.00;;;15.30;90.30;;;;;;5140768;27;20424;-78
2022/06/17 00:24:26;;;;;;;6.67;6.07;;;15.30;90.40;;;;;;5159965;27;20533;-79
2022/06/17 00:26:55;;;;;;;8.43;6.10;;;15.30;90.40;;;;;;5160008;27;20527;-78
2022/06/17 00:29:26;;;;;;;6.33;5.77;;;15.20;90.40;;;;;;5141320;27;20488;-78
2022/06/17 00:31:55;;;;;;;7.07;5.90;;;15.20;90.50;;;;;;5160957;27;20388;-80
2022/06/17 00:34:24;;;;;;;7.30;5.93;;;15.10;90.50;;;;;;5159982;27;20976;-79
2022/06/17 00:36:57;;;;;;;8.77;6.50;;;15.10;90.50;;;;;;5140596;27;20433;-79
2022/06/17 00:39:27;;;;;;;7.77;6.53;;;15.10;90.60;;;;;;5141661;27;20437;-78
2022/06/17 00:41:59;;;;;;;7.43;6.73;;;15.00;90.70;;;;;;5159230;27;20432;-79
2022/06/17 00:44:32;;;;;;;7.20;6.50;;;15.00;90.70;;;;;;5139907;27;20992;-79
2022/06/17 00:47:07;;;;;;;7.73;7.03;;;15.00;90.80;;;;;;5139980;27;20522;-79
2022/06/17 00:49:44;;;;;;;6.90;6.30;;;14.90;90.80;;;;;;5140886;27;21005;-77
2022/06/17 00:52:20;;;;;;;7.03;6.50;;;14.90;90.90;;;;;;5140545;27;20540;-79
2022/06/17 00:54:53;;;;;;;7.83;6.43;;;14.90;91.00;;;;;;5140913;27;21062;-79
2022/06/17 00:57:26;;;;;;;11.67;9.40;;;14.80;90.90;;;;;;5139462;27;20488;-77
2022/06/17 01:00:02;;;;;;;9.80;8.83;;;14.80;91.00;;;;;;5140138;27;20404;-78
2022/06/17 01:02:35;;;;;;;7.40;6.77;;;14.80;91.00;;;;;;5139168;27;20974;-77
2022/06/17 01:05:04;;;;;;;7.27;6.47;;;14.70;91.10;;;;;;5140628;27;20420;-77
2022/06/17 01:07:39;;;;;;;6.83;5.70;;;14.70;91.10;;;;;;5139599;27;20531;-78
2022/06/17 01:10:11;;;;;;;6.03;5.43;;;14.70;91.20;;;;;;5140475;27;20416;-78
2022/06/17 01:12:45;;;;;;;7.00;6.40;;;14.60;91.30;;;;;;5139599;27;20413;-77
2022/06/17 01:15:17;;;;;;;6.00;5.40;;;14.60;91.60;;;;;;5140011;27;20800;-78
2022/06/17 01:17:49;;;;;;;6.47;5.83;;;14.60;91.40;;;;;;5139051;27;20541;-77
2022/06/17 01:20:20;;;;;;;6.10;5.50;;;14.60;91.40;;;;;;5139965;27;20434;-77
2022/06/17 01:22:52;;;;;;;6.60;5.90;;;14.50;91.40;;;;;;5158050;27;20408;-77
2022/06/17 01:25:24;;;;;;;6.13;5.63;;;14.50;91.40;;;;;;5141036;27;20783;-79
2022/06/17 01:27:55;;;;;;;6.60;5.97;;;14.50;91.50;;;;;;5140473;27;20458;-79
2022/06/17 01:30:27;;;;;;;6.13;5.63;;;14.50;91.70;;;;;;5140350;27;20496;-79
2022/06/17 01:32:59;;;;;;;6.47;5.90;;;14.40;91.50;;;;;;5139871;27;20430;-76
2022/06/17 01:35:36;;;;;;;6.87;6.17;;;14.40;91.60;;;;;;5139381;27;20409;-78
2022/06/17 01:38:06;;;;;;;7.00;6.50;;;14.40;91.70;;;;;;5140118;27;20838;-77
2022/06/17 01:40:35;;;;;;;7.03;5.90;;;14.30;91.70;;;;;;5139163;27;20445;-77
2022/06/17 01:43:08;;;;;;;7.57;6.23;;;14.30;91.70;;;;;;5139861;27;20424;-77
2022/06/17 01:45:40;;;;;;;6.30;5.70;;;14.30;91.80;;;;;;5138802;27;21009;-77
2022/06/17 01:48:11;;;;;;;6.30;5.80;;;14.20;91.80;;;;;;5140432;27;20465;-78
2022/06/17 01:50:41;;;;;;;6.47;5.87;;;14.20;91.80;;;;;;5159046;27;20444;-80
2022/06/17 01:53:15;;;;;;;6.40;5.90;;;14.20;91.90;;;;;;5139473;27;20511;-79
2022/06/17 01:55:48;;;;;;;5.93;5.30;;;14.20;91.90;;;;;;5139997;27;20959;-78
2022/06/17 01:58:22;;;;;;;6.93;6.23;;;14.20;92.20;;;;;;5139025;27;20498;-77
2022/06/17 02:00:51;;;;;;;7.97;7.27;;;14.10;92.00;;;;;;5137836;27;20557;-77
2022/06/17 02:03:24;;;;;;;7.40;6.70;;;14.20;92.10;;;;;;5138164;27;20959;-77
2022/06/17 02:06:06;;;;;;;7.20;6.50;;;14.10;92.20;;;;;;5139808;27;20488;-78
2022/06/17 02:08:37;;;;;;;7.47;6.77;;;14.10;92.20;;;;;;5139089;27;20952;-78
2022/06/17 02:11:07;;;;;;;8.23;7.27;;;14.10;92.20;;;;;;5138841;27;20875;-76
2022/06/17 02:13:41;;;;;;;11.50;6.70;;;14.00;92.20;;;;;;5138255;27;20460;-79
2022/06/17 02:16:33;;;;;;;8.30;6.60;;;14.00;92.30;;;;;;5156402;27;20460;-79
2022/06/17 02:19:13;;;;;;;7.90;7.20;;;14.00;92.30;;;;;;5138165;27;20433;-78
2022/06/17 02:21:45;;;;;;;6.90;6.30;;;14.00;92.40;;;;;;5137507;27;20532;-77
2022/06/17 02:24:16;;;;;;;9.00;7.50;;;13.90;92.40;;;;;;5137541;27;20448;-77
2022/06/17 02:26:46;;;;;;;8.10;7.30;;;13.90;92.40;;;;;;5139057;27;20517;-77
2022/06/17 02:29:16;;;;;;;7.20;6.50;;;13.90;92.50;;;;;;5139261;27;20412;-77
2022/06/17 02:31:46;;;;;;;8.10;7.40;;;13.90;92.50;;;;;;5138494;27;20449;-79
2022/06/17 02:34:18;;;;;;;9.03;8.20;;;13.90;92.60;;;;;;5139970;27;20445;-79
2022/06/17 02:36:53;;;;;;;8.30;7.60;;;13.80;92.60;;;;;;5140062;27;20476;-78
2022/06/17 02:39:23;;;;;;;9.77;8.87;;;13.80;92.70;;;;;;5140652;27;20457;-78
2022/06/17 02:41:53;;;;;;;10.43;9.43;;;13.80;92.70;;;;;;5140219;27;20516;-79
2022/06/17 02:44:25;;;;;;;9.90;9.13;;;13.70;92.70;;;;;;5139766;27;20490;-78
2022/06/17 02:46:57;;;;;;;11.60;10.23;;;13.70;92.80;;;;;;5139924;27;20841;-78
2022/06/17 02:49:28;;;;;;;11.77;10.77;;;13.70;92.80;;;;;;5140154;27;20537;-79
2022/06/17 02:51:58;;;;;;;12.20;11.20;;;13.70;92.90;;;;;;5158427;27;20418;-78
2022/06/17 02:54:32;;;;;;;12.07;10.90;;;13.70;92.90;;;;;;5140106;27;20962;-78
2022/06/17 02:57:02;;;;;;;12.77;11.57;;;13.60;93.00;;;;;;5140186;27;20468;-78
2022/06/17 02:59:36;;;;;;;13.00;11.70;;;13.60;93.00;;;;;;5140095;27;20441;-78
2022/06/17 03:02:14;;;;;;;12.37;11.27;;;13.60;93.10;;;;;;5140007;27;20465;-79
2022/06/17 03:04:45;;;;;;;12.50;11.40;;;13.60;93.20;;;;;;5140282;27;20460;-78
2022/06/17 03:07:16;;;;;;;12.47;11.37;;;13.60;93.30;;;;;;5140044;27;20501;-78
2022/06/17 03:09:49;;;;;;;12.33;11.30;;;13.60;93.30;;;;;;5140900;27;20460;-78
2022/06/17 03:12:22;;;;;;;11.20;10.30;;;13.60;93.40;;;;;;5140092;27;20453;-79
2022/06/17 03:14:56;;;;;;;13.93;12.73;;;13.60;93.50;;;;;;5140916;27;20806;-79
2022/06/17 03:17:26;;;;;;;12.30;11.10;;;13.60;93.50;;;;;;5141412;27;20480;-79
2022/06/17 03:19:56;;;;;;;13.70;12.30;;;13.60;93.60;;;;;;5140891;27;20490;-79
2022/06/17 03:22:26;;;;;;;13.30;12.03;;;13.60;93.60;;;;;;5141007;27;20914;-79
2022/06/17 03:25:04;;;;;;;13.53;12.33;;;13.60;93.70;;;;;;5140635;27;20441;-78
2022/06/17 03:27:38;;;;;;;13.97;12.77;;;13.60;93.70;;;;;;5138046;27;20512;-77
2022/06/17 03:30:11;;;;;;;12.20;10.97;;;13.60;93.80;;;;;;5139969;27;20486;-78
2022/06/17 03:32:44;;;;;;;15.50;13.77;;;13.60;93.80;;;;;;5140631;27;20438;-79
2022/06/17 03:35:20;;;;;;;13.60;12.20;;;13.60;93.90;;;;;;5139805;27;20422;-77
2022/06/17 03:37:54;;;;;;;12.63;11.40;;;13.60;93.90;;;;;;5137538;27;20464;-78
2022/06/17 03:40:28;;;;;;;12.47;11.47;;;13.50;93.90;;;;;;5139554;27;20470;-77
2022/06/17 03:43:05;;;;;;;12.17;10.97;;;13.50;94.30;;;;;;5139214;27;20959;-77
2022/06/17 03:45:43;;;;;;;11.83;10.70;;;13.50;94.00;;;;;;5139078;27;20441;-79
2022/06/17 03:48:21;;;;;;;11.83;10.73;;;13.50;94.10;;;;;;5139321;27;20449;-78
2022/06/17 03:50:50;;;;;;;12.37;11.27;;;13.60;94.20;;;;;;5138970;27;20448;-78
2022/06/17 03:53:25;;;;;;;12.30;11.17;;;13.50;94.20;;;;;;5139565;27;20435;-78
2022/06/17 03:55:59;;;;;;;13.07;11.73;;;13.50;94.30;;;;;;5143052;27;20510;-79
2022/06/17 03:58:27;;;;;;;11.83;10.83;;;13.60;94.40;;;;;;5141402;27;20440;-78
2022/06/17 04:01:01;;;;;;;11.77;10.77;;;13.50;94.40;;;;;;5141808;27;20422;-78
2022/06/17 04:03:34;;;;;;;11.90;11.00;;;13.50;94.50;;;;;;5141934;27;20842;-79
2022/06/17 04:06:09;;;;;;;12.43;11.33;;;13.60;94.60;;;;;;5144725;27;20464;-79
2022/06/17 04:08:51;;;;;;;13.47;12.07;;;13.60;94.70;;;;;;5144234;27;20454;-78
2022/06/17 04:11:24;;;;;;;14.77;13.03;;;13.60;94.70;;;;;;5141619;27;20441;-78
2022/06/17 04:13:55;;;;;;;13.27;11.93;;;13.60;94.80;;;;;;5141728;27;20454;-78
2022/06/17 04:16:32;;;;;;;13.23;12.20;;;13.60;94.80;;;;;;5142539;27;20457;-78
2022/06/17 04:19:13;;;;;;;12.70;11.67;;;13.60;94.90;;;;;;5141817;27;20492;-80
2022/06/17 04:21:44;;;;;;;13.97;12.67;;;13.60;94.90;;;;;;5141904;27;20507;-78
2022/06/17 04:24:16;;;;;;;13.80;12.60;;;13.60;94.90;;;;;;5140994;27;20828;-77
2022/06/17 04:26:59;;;;;;;13.07;11.77;;;13.60;95.00;;;;;;5141737;27;20565;-80
2022/06/17 04:29:34;;;;;;;14.17;12.77;;;13.70;95.10;;;;;;5141503;27;20458;-78
2022/06/17 04:32:09;;;;;;;13.93;12.63;;;13.70;95.20;;;;;;5140222;27;20524;-78
2022/06/17 04:34:38;;;;;;;14.23;12.80;;;13.70;95.20;;;;;;5140632;27;20473;-78
2022/06/17 04:37:12;;;;;;;13.20;12.10;;;13.70;95.20;;;;;;5140555;27;20552;-78
2022/06/17 04:39:59;;;;;;;13.13;12.03;;;13.70;95.30;;;;;;5141000;27;20938;-79
2022/06/17 04:42:48;;;;;;;14.07;12.77;;;13.80;95.40;;;;;;5141512;27;20973;-79
2022/06/17 04:45:22;;;;;;;14.27;12.87;;;13.80;95.40;;;;;;5142772;27;20503;-79
2022/06/17 04:47:53;;;;;;;13.23;12.03;;;13.80;95.50;;;;;;5142649;27;20972;-79
2022/06/17 04:50:27;;;;;;;14.30;12.80;;;13.80;95.60;;;;;;5142582;27;20824;-79
2022/06/17 04:52:57;;;;;;;14.40;12.90;;;13.90;95.70;;;;;;5142520;27;20437;-80
2022/06/17 04:55:29;;;;;;;13.70;12.50;;;13.90;95.70;;;;;;5160152;27;20483;-78
2022/06/17 04:58:03;;;;;;;14.37;13.00;;;14.00;95.80;;;;;;5140147;27;20438;-78
2022/06/17 05:00:32;;;;;;;13.47;12.20;;;14.00;95.90;;;;;;5141779;27;20446;-78
2022/06/17 05:03:01;;;;;;;13.50;12.30;;;14.10;95.90;;;;;;5141174;27;20465;-79
2022/06/17 05:05:56;;;;;;;14.20;12.90;;;14.10;95.90;;;;;;5135259;27;20533;-77
2022/06/17 05:08:29;;;;;;;13.10;12.00;;;14.20;96.00;;;;;;5139166;27;20441;-77
2022/06/17 05:11:02;;;;;;;13.90;12.70;;;14.30;96.00;;;;;;5140173;27;20442;-78
2022/06/17 05:13:36;;;;;;;13.70;11.93;;;14.30;96.00;;;;;;5139758;27;20529;-79
2022/06/17 05:16:05;;;;;;;14.13;12.73;;;14.40;96.10;;;;;;5139510;27;20462;-79
2022/06/17 05:18:34;;;;;;;13.40;12.00;;;14.40;96.10;;;;;;5140369;27;20450;-78
2022/06/17 05:21:18;;;;;;;13.20;11.80;;;14.50;96.10;;;;;;5139606;27;20434;-77
2022/06/17 05:23:48;;;;;;;12.33;11.10;;;14.60;96.20;;;;;;5139425;27;20511;-77
2022/06/17 05:26:17;;;;;;;11.67;10.50;;;14.70;96.20;;;;;;5138350;27;20521;-77
2022/06/17 05:28:47;;;;;;;10.73;9.83;;;14.80;96.20;;;;;;5138276;27;20476;-77
2022/06/17 05:31:19;;;;;;;11.10;10.20;;;14.90;96.30;;;;;;5138502;27;20430;-77
2022/06/17 05:33:53;;;;;;;12.33;11.23;;;15.00;96.30;;;;;;5140449;27;20502;-77
2022/06/17 05:36:22;;;;;;;11.30;10.40;;;15.10;96.30;;;;;;5139792;27;20466;-78
2022/06/17 05:38:52;;;;;;;11.20;10.10;;;15.30;96.30;;;;;;5138762;27;20985;-77
2022/06/17 05:41:24;;;;;;;12.23;11.03;;;15.50;96.30;;;;;;5158387;27;20453;-78
2022/06/17 05:43:55;;;;;;;11.70;10.60;;;15.70;96.30;;;;;;5140481;27;20412;-78
2022/06/17 05:46:35;;;;;;;11.27;10.13;;;15.90;96.30;;;;;;5140046;27;20813;-77
2022/06/17 05:49:29;;;;;;;10.77;9.77;;;16.20;96.20;;;;;;5154778;27;20457;-77
2022/06/17 05:52:04;;;;;;;10.97;9.83;;;16.50;96.20;;;;;;5140544;27;20843;-79
2022/06/17 05:55:00;;;;;;;10.67;9.67;;;16.80;96.10;;;;;;5138877;27;20536;-79
2022/06/17 05:57:29;;;;;;;10.73;9.50;;;17.20;96.10;;;;;;5158227;27;20430;-79
2022/06/17 05:59:59;;;;;;;13.10;10.20;;;17.50;96.40;;;;;;5140224;27;20444;-78
2022/06/17 06:02:39;;;;;;;9.17;8.07;;;17.80;96.00;;;;;;5158243;27;20416;-78
2022/06/17 06:05:18;;;;;;;9.53;8.73;;;18.10;95.90;;;;;;5140054;27;20445;-78
2022/06/17 06:07:48;;;;;;;9.10;8.23;;;18.50;95.70;;;;;;5139088;27;20469;-77
2022/06/17 06:10:18;;;;;;;7.60;6.83;;;18.80;95.50;;;;;;5139589;27;20484;-77
2022/06/17 06:12:57;;;;;;;8.00;7.20;;;19.10;95.40;;;;;;5139759;27;20449;-79
2022/06/17 06:15:38;;;;;;;9.80;7.07;;;19.40;95.20;;;;;;5138234;27;20441;-80
2022/06/17 06:18:23;;;;;;;7.67;6.87;;;19.60;94.90;;;;;;5158021;27;20418;-78
2022/06/17 06:20:52;;;;;;;9.23;6.50;;;19.80;94.60;;;;;;5139323;27;20525;-79
2022/06/17 06:23:24;;;;;;;8.00;6.90;;;20.10;94.40;;;;;;5139496;27;20441;-77
2022/06/17 06:25:53;;;;;;;6.90;6.23;;;20.30;94.10;;;;;;5139284;27;20549;-78
2022/06/17 06:28:24;;;;;;;7.43;6.30;;;20.60;94.00;;;;;;5139633;27;20441;-80
2022/06/17 06:31:06;;;;;;;7.57;6.30;;;20.80;93.70;;;;;;5139345;27;20487;-78
2022/06/17 06:33:35;;;;;;;6.13;5.63;;;21.10;93.50;;;;;;5139770;27;20472;-78
2022/06/17 06:36:06;;;;;;;6.10;5.50;;;21.40;93.40;;;;;;5139254;27;20469;-79
2022/06/17 06:38:35;;;;;;;7.70;6.67;;;21.70;93.30;;;;;;5139846;27;20452;-78
2022/06/17 06:41:04;;;;;;;6.07;5.47;;;21.70;92.90;;;;;;5158031;27;20930;-78
2022/06/17 06:43:33;;;;;;;6.20;5.60;;;21.70;92.60;;;;;;5140042;27;20448;-79
2022/06/17 06:46:33;;;;;;;7.07;6.37;;;21.70;92.70;;;;;;5140030;27;20462;-79
2022/06/17 06:49:04;;;;;;;6.47;5.70;;;21.60;92.30;;;;;;5138847;27;20492;-78
2022/06/17 06:51:33;;;;;;;6.20;5.67;;;21.60;92.20;;;;;;5139492;27;20438;-80
2022/06/17 06:54:03;;;;;;;5.93;5.43;;;21.50;92.10;;;;;;5139628;27;20472;-79
2022/06/17 06:56:32;;;;;;;6.80;6.20;;;21.50;92.10;;;;;;5139198;27;20461;-78
2022/06/17 06:59:00;;;;;;;6.67;5.90;;;21.60;92.10;;;;;;5139297;27;20529;-81
2022/06/17 07:01:34;;;;;;;8.30;6.50;;;21.90;92.10;;;;;;5139909;27;20930;-80
2022/06/17 07:04:04;;;;;;;7.53;6.93;;;22.10;91.90;;;;;;5139778;27;21009;-80
2022/06/17 07:06:35;;;;;;;7.80;7.10;;;22.30;91.70;;;;;;5139422;27;20465;-80
2022/06/17 07:09:04;;;;;;;15.40;11.40;;;22.40;91.60;;;;;;5139486;27;20441;-80
2022/06/17 07:11:32;;;;;;;7.07;6.43;;;22.50;91.40;;;;;;5140347;27;20465;-79
2022/06/17 07:14:00;;;;;;;7.37;6.67;;;22.60;91.30;;;;;;5158928;27;20494;-81
2022/06/17 07:16:28;;;;;;;9.00;6.70;;;22.60;91.10;;;;;;5140369;27;20464;-79
2022/06/17 07:18:58;;;;;;;6.87;5.97;;;22.60;90.80;;;;;;5157473;27;20926;-80
2022/06/17 07:21:26;;;;;;;5.80;5.20;;;22.60;90.70;;;;;;5140014;27;20448;-80
2022/06/17 07:23:55;;;;;;;8.03;6.40;;;22.50;90.90;;;;;;5139443;27;20471;-80
2022/06/17 07:26:25;;;;;;;7.07;5.63;;;22.50;90.50;;;;;;5158412;27;20588;-79
2022/06/17 07:28:55;;;;;;;6.43;5.70;;;22.50;90.50;;;;;;5138947;27;20518;-80
2022/06/17 07:31:23;;;;;;;7.60;6.03;;;22.50;90.40;;;;;;5158360;27;20553;-79
2022/06/17 07:33:52;;;;;;;6.03;5.43;;;22.60;90.60;;;;;;5158499;27;20843;-81
2022/06/17 07:41:59;;;;;;;5.37;4.87;;;22.90;90.10;;;;;;5144072;27;20789;-80
2022/06/17 07:44:27;;;;;;;8.37;6.63;;;23.00;90.00;;;;;;5142669;27;20436;-79
2022/06/17 07:46:56;;;;;;;7.00;6.30;;;23.10;89.80;;;;;;5143303;27;20465;-80
2022/06/17 07:49:24;;;;;;;8.00;7.00;;;23.10;89.40;;;;;;5161774;27;20541;-78
2022/06/17 07:51:54;;;;;;;8.10;7.40;;;23.10;89.10;;;;;;5143412;27;20473;-79
2022/06/17 07:54:22;;;;;;;11.43;7.00;;;23.00;88.80;;;;;;5162024;27;20930;-80
2022/06/17 07:56:55;;;;;;;11.03;8.23;;;23.00;88.60;;;;;;5143000;27;20466;-78
2022/06/17 07:59:23;;;;;;;7.30;6.60;;;23.00;88.60;;;;;;5143440;27;20934;-78
2022/06/17 08:01:54;;;;;;;8.13;7.43;;;23.00;88.60;;;;;;5143916;27;20453;-79
2022/06/17 08:04:22;;;;;;;6.57;5.93;;;23.20;88.80;;;;;;5143549;27;20950;-77
2022/06/17 08:06:50;;;;;;;6.27;5.77;;;23.40;88.60;;;;;;5161723;27;20854;-79
2022/06/17 08:09:24;;;;;;;6.93;6.33;;;23.50;88.50;;;;;;5161237;27;20430;-79
2022/06/17 08:11:52;;;;;;;7.07;6.37;;;23.60;88.50;;;;;;5143359;27;20883;-79
2022/06/17 08:14:20;;;;;;;7.97;7.13;;;23.70;88.40;;;;;;5162459;27;20934;-80
2022/06/17 08:16:49;;;;;;;8.57;7.47;;;23.80;89.00;;;;;;5143804;27;20469;-80
2022/06/17 08:19:17;;;;;;;8.60;6.93;;;24.00;88.40;;;;;;5143277;27;20452;-77
2022/06/17 08:21:45;;;;;;;7.47;6.80;;;24.10;88.20;;;;;;5161503;27;20425;-78
2022/06/17 08:24:30;;;;;;;6.80;6.20;;;24.20;87.90;;;;;;5143330;27;20471;-79
2022/06/17 08:26:59;;;;;;;7.33;6.70;;;24.20;87.70;;;;;;5162640;27;20576;-80
2022/06/17 08:29:28;;;;;;;7.50;6.10;;;24.20;87.30;;;;;;5161687;27;20440;-79
2022/06/17 08:35:01;;;;;;;7.67;5.83;;;24.10;86.80;;;;;;5128085;27;20938;-78
2022/06/17 08:37:29;;;;;;;6.40;5.77;;;24.10;86.30;;;;;;5142490;27;20500;-78
2022/06/17 08:40:00;;;;;;;8.23;5.67;;;24.10;85.80;;;;;;5142980;27;20456;-81
2022/06/17 08:42:49;;;;;;;7.10;6.40;;;24.10;85.80;;;;;;5161120;27;20430;-80
2022/06/17 08:45:25;;;;;;;6.30;5.70;;;24.10;85.40;;;;;;5162721;27;20414;-79
2022/06/17 08:48:09;;;;;;;6.47;5.87;;;24.10;85.70;;;;;;5162065;27;20467;-79
2022/06/17 08:50:57;;;;;;;6.33;5.73;;;24.10;85.60;;;;;;5161655;27;20960;-78
2022/06/17 08:53:51;;;;;;;5.60;5.10;;;24.20;85.40;;;;;;5143552;27;20847;-80
2022/06/17 08:56:29;;;;;;;7.20;6.50;;;24.30;85.30;;;;;;5161605;27;20449;-78
2022/06/17 08:59:13;;;;;;;6.87;6.17;;;24.30;85.40;;;;;;5161724;27;20430;-79
2022/06/17 09:01:48;;;;;;;8.47;7.60;;;24.40;85.30;;;;;;5142705;27;20474;-79
2022/06/17 09:04:32;;;;;;;5.90;5.30;;;24.40;84.80;;;;;;5146451;27;20441;-80
2022/06/17 09:07:10;;;;;;;6.50;5.90;;;24.40;84.00;;;;;;5145929;27;20468;-81
2022/06/17 09:09:50;;;;;;;9.87;5.83;;;24.40;83.60;;;;;;5163051;27;20440;-81
2022/06/17 09:12:31;;;;;;;7.13;5.93;;;24.30;84.10;;;;;;5142906;27;20974;-80
2022/06/17 09:15:08;;;;;;;8.60;7.90;;;24.30;83.60;;;;;;5142446;27;20429;-81
2022/06/17 09:17:46;;;;;;;7.03;6.33;;;24.40;84.10;;;;;;5160640;27;20464;-81
2022/06/17 09:20:24;;;;;;;7.47;6.20;;;24.40;84.30;;;;;;5142210;27;20775;-80
2022/06/17 09:22:58;;;;;;;7.10;5.90;;;24.50;84.00;;;;;;5141950;27;20444;-79
2022/06/17 09:25:33;;;;;;;6.30;5.73;;;24.50;83.90;;;;;;5142476;27;20445;-79
2022/06/17 09:28:05;;;;;;;8.00;6.83;;;24.50;83.90;;;;;;5142183;27;20469;-79
2022/06/17 09:30:40;;;;;;;9.63;8.83;;;24.60;84.10;;;;;;5141130;27;21033;-78
2022/06/17 09:33:14;;;;;;;8.27;7.60;;;24.70;84.00;;;;;;5140978;27;20430;-78
2022/06/17 09:35:49;;;;;;;6.90;5.77;;;24.60;83.80;;;;;;5159005;27;20446;-79
2022/06/17 09:38:20;;;;;;;9.47;7.63;;;24.60;83.80;;;;;;5141215;27;20945;-78
2022/06/17 09:40:55;;;;;;;8.03;7.23;;;24.60;84.10;;;;;;5141021;27;20437;-80
2022/06/17 09:43:30;;;;;;;8.77;7.93;;;24.60;83.90;;;;;;5159673;27;20906;-80
2022/06/17 09:46:06;;;;;;;8.37;7.60;;;24.60;83.80;;;;;;5140834;27;20476;-80
2022/06/17 09:48:41;;;;;;;9.90;8.60;;;24.60;84.10;;;;;;5140916;27;20437;-80
2022/06/17 09:51:15;;;;;;;8.63;7.93;;;24.70;84.50;;;;;;5159142;27;20453;-80
2022/06/17 09:53:50;;;;;;;7.50;6.77;;;24.70;84.40;;;;;;5159497;27;20501;-78
2022/06/17 09:56:23;;;;;;;8.17;7.47;;;24.70;84.30;;;;;;5140941;27;20465;-78
2022/06/17 09:59:01;;;;;;;7.40;6.50;;;24.70;84.10;;;;;;5141623;27;20477;-79
2022/06/17 10:01:30;;;;;;;8.37;7.60;;;24.70;84.00;;;;;;5140921;27;20453;-78
2022/06/17 10:03:58;;;;;;;7.80;7.00;;;24.70;83.90;;;;;;5159308;27;20429;-79
2022/06/17 10:06:44;;;;;;;7.37;6.53;;;24.70;83.60;;;;;;5141087;27;20512;-79
2022/06/17 10:09:25;;;;;;;7.93;7.33;;;24.80;83.60;;;;;;5141619;27;20950;-80
2022/06/17 10:11:59;;;;;;;7.13;6.50;;;24.90;83.50;;;;;;5141299;27;20500;-81
2022/06/17 10:14:46;;;;;;;8.03;7.23;;;24.90;83.60;;;;;;5141711;27;20466;-79
2022/06/17 10:20:19;;;;;;;7.73;7.10;;;25.00;83.30;;;;;;5160351;27;20421;-80
2022/06/17 10:22:55;;;;;;;7.53;6.83;;;25.00;82.90;;;;;;5160574;27;20468;-79
2022/06/17 10:25:36;;;;;;;6.70;6.20;;;24.90;83.20;;;;;;5140177;27;20437;-78
2022/06/17 10:28:18;;;;;;;7.27;6.50;;;24.90;83.60;;;;;;5138969;27;20529;-77
2022/06/17 10:30:57;;;;;;;8.00;7.20;;;25.00;83.60;;;;;;5139710;27;20433;-79
2022/06/17 10:33:29;;;;;;;8.40;7.60;;;25.00;83.60;;;;;;5139252;27;20449;-78
2022/06/17 10:35:59;;;;;;;12.00;7.07;;;25.00;83.60;;;;;;5157955;27;20536;-78
2022/06/17 10:38:32;;;;;;;7.33;6.23;;;25.10;83.90;;;;;;5139415;27;20524;-77
2022/06/17 10:41:02;;;;;;;6.60;5.87;;;25.10;84.10;;;;;;5158787;27;20445;-78
2022/06/17 10:43:37;;;;;;;5.97;5.40;;;25.20;84.20;;;;;;5141799;27;20505;-78
2022/06/17 10:46:14;;;;;;;6.93;5.30;;;25.20;84.20;;;;;;5158179;27;20817;-79
2022/06/17 10:48:47;;;;;;;11.13;10.20;;;25.40;84.10;;;;;;5158910;27;20426;-77
2022/06/17 10:51:16;;;;;;;6.73;6.03;;;25.40;83.70;;;;;;5138462;27;20437;-77
2022/06/17 10:53:47;;;;;;;7.70;6.30;;;25.40;83.20;;;;;;5157173;27;20476;-77
2022/06/17 10:56:22;;;;;;;6.37;5.77;;;25.40;82.70;;;;;;5157320;27;20548;-78
2022/06/17 10:58:59;;;;;;;5.67;5.20;;;25.40;83.10;;;;;;5160446;27;20456;-78
2022/06/17 11:01:53;;;;;;;7.53;5.93;;;25.50;82.30;;;;;;5160030;27;21008;-78
2022/06/17 11:04:25;;;;;;;6.63;5.83;;;25.50;82.30;;;;;;5158378;27;20521;-78
2022/06/17 11:06:59;;;;;;;7.53;6.13;;;25.60;82.80;;;;;;5158754;27;20548;-78
2022/06/17 11:09:31;;;;;;;6.10;5.30;;;25.70;82.70;;;;;;5139636;27;20452;-77
2022/06/17 11:12:04;;;;;;;6.77;5.20;;;25.70;82.60;;;;;;5138962;27;21010;-76
2022/06/17 11:14:38;;;;;;;6.50;5.80;;;25.80;82.70;;;;;;5160148;27;20413;-78
2022/06/17 11:17:17;;;;;;;6.10;5.60;;;25.80;83.00;;;;;;5161499;27;20958;-78
2022/06/17 11:19:50;;;;;;;5.77;5.27;;;25.90;82.90;;;;;;5163010;27;20413;-77
2022/06/17 11:22:22;;;;;;;6.03;4.93;;;26.00;82.50;;;;;;5142578;27;20473;-77
2022/06/17 11:24:56;;;;;;;6.07;5.50;;;26.00;82.20;;;;;;5161332;27;20413;-77
2022/06/17 11:27:31;;;;;;;5.60;5.10;;;26.00;81.90;;;;;;5142106;27;20485;-78
2022/06/17 11:30:22;;;;;;;5.27;4.77;;;26.00;82.00;;;;;;5145067;27;20501;-81
2022/06/17 11:32:56;;;;;;;5.90;5.40;;;26.00;82.20;;;;;;5142917;27;20548;-77
2022/06/17 11:35:41;;;;;;;6.10;4.97;;;26.10;82.10;;;;;;5141082;27;20525;-77
2022/06/17 11:38:13;;;;;;;4.53;4.13;;;26.10;81.90;;;;;;5162364;27;20456;-77
2022/06/17 11:41:02;;;;;;;5.80;5.30;;;26.20;81.70;;;;;;5163494;27;20439;-79
2022/06/17 11:43:35;;;;;;;5.53;5.13;;;26.10;81.60;;;;;;5143684;27;20498;-78
2022/06/17 11:46:09;;;;;;;7.43;6.73;;;26.10;82.30;;;;;;5142900;27;20828;-78
2022/06/17 11:48:43;;;;;;;5.30;4.80;;;26.10;81.80;;;;;;5163517;27;20422;-79
2022/06/17 11:51:14;;;;;;;5.90;5.23;;;26.10;81.90;;;;;;5144688;27;20432;-79
2022/06/17 11:53:50;;;;;;;5.43;5.03;;;26.10;81.90;;;;;;5161920;27;20453;-77
2022/06/17 11:56:29;;;;;;;5.43;4.93;;;26.10;81.50;;;;;;5145275;27;20507;-79
2022/06/17 11:59:12;;;;;;;6.03;5.50;;;26.10;81.30;;;;;;5164974;27;20421;-79
2022/06/17 12:01:43;;;;;;;5.90;5.30;;;26.10;81.30;;;;;;5143273;27;20961;-77
2022/06/17 12:04:32;;;;;;;6.27;5.53;;;26.10;81.40;;;;;;5161630;27;20414;-78
2022/06/17 12:07:01;;;;;;;6.30;5.73;;;26.20;80.60;;;;;;5162772;27;20889;-78
2022/06/17 12:09:35;;;;;;;6.80;6.20;;;26.10;80.20;;;;;;5163695;27;20493;-78
2022/06/17 12:12:10;;;;;;;6.60;5.53;;;26.10;80.90;;;;;;5163976;27;20910;-79
2022/06/17 12:14:49;;;;;;;7.10;6.40;;;26.10;80.50;;;;;;5143257;27;20981;-77
2022/06/17 12:17:19;;;;;;;7.57;6.10;;;26.10;80.70;;;;;;5144242;27;20494;-78
2022/06/17 12:20:02;;;;;;;6.20;5.10;;;26.10;80.70;;;;;;5161900;27;20776;-77
2022/06/17 12:22:36;;;;;;;6.10;5.50;;;26.20;80.50;;;;;;5143904;27;20983;-77
2022/06/17 12:25:13;;;;;;;7.90;7.20;;;26.10;80.50;;;;;;5162429;27;20409;-80
2022/06/17 12:27:47;;;;;;;9.07;6.60;;;26.10;80.80;;;;;;5143463;27;20475;-77
2022/06/17 12:30:42;;;;;;;6.50;6.00;;;26.10;80.80;;;;;;5147601;27;20447;-78
2022/06/17 12:33:17;;;;;;;7.37;5.77;;;26.10;80.90;;;;;;5176600;27;20449;-79
2022/06/17 12:35:51;;;;;;;6.00;5.40;;;26.10;81.00;;;;;;5159877;27;20472;-79
2022/06/17 12:38:28;;;;;;;6.43;5.83;;;26.10;81.10;;;;;;5152724;27;20442;-79
2022/06/17 12:41:03;;;;;;;6.10;5.50;;;26.10;81.30;;;;;;5163828;27;20828;-79
2022/06/17 12:43:36;;;;;;;9.67;8.73;;;26.10;81.40;;;;;;5143853;27;20466;-79
2022/06/17 12:46:09;;;;;;;5.97;5.47;;;26.10;81.30;;;;;;5143988;27;20518;-78
2022/06/17 12:48:49;;;;;;;6.00;5.50;;;26.10;81.50;;;;;;5161875;27;20418;-78
2022/06/17 12:54:22;;;;;;;7.63;5.87;;;26.10;81.30;;;;;;5144511;27;20457;-79
2022/06/17 12:57:03;;;;;;;5.83;5.17;;;26.10;81.30;;;;;;5144858;27;20462;-78
2022/06/17 12:59:50;;;;;;;5.50;4.97;;;26.20;81.40;;;;;;5161005;27;20427;-78
2022/06/17 13:02:23;;;;;;;5.80;5.30;;;26.20;81.40;;;;;;5142790;27;20475;-78
2022/06/17 13:05:15;;;;;;;7.40;5.80;;;26.20;81.40;;;;;;5160839;27;20410;-78
2022/06/17 13:07:59;;;;;;;6.33;5.60;;;26.20;81.30;;;;;;5134677;27;20856;-79
2022/06/17 13:10:42;;;;;;;5.67;5.10;;;26.10;81.00;;;;;;5143611;27;20465;-78
2022/06/17 13:13:33;;;;;;;6.13;5.03;;;26.10;81.20;;;;;;5142859;27;20878;-78
2022/06/17 13:16:05;;;;;;;6.53;5.90;;;26.10;81.10;;;;;;5143797;27;20472;-79
2022/06/17 13:18:43;;;;;;;5.83;5.33;;;26.10;81.00;;;;;;5144206;27;20441;-77
2022/06/17 13:21:23;;;;;;;6.23;5.70;;;26.20;80.90;;;;;;5162312;27;20406;-78
2022/06/17 13:23:59;;;;;;;7.60;5.17;;;26.20;80.80;;;;;;5143542;27;20473;-78
2022/06/17 13:26:35;;;;;;;5.57;5.07;;;26.20;80.80;;;;;;5161440;27;20449;-78
2022/06/17 13:29:10;;;;;;;6.67;5.37;;;26.30;80.70;;;;;;5161267;27;20482;-80
2022/06/17 13:31:43;;;;;;;5.70;5.07;;;26.30;80.70;;;;;;5161479;27;20763;-78